Time;durP1;ratioP1;P1;durP2;ratioP2;P2;SDS_P1;SDS_P2;PMS_P1;PMS_P2;Temp;Humidity;BMP_temperature;BMP_pressure;BME280_temperature;BME280_humidity;BME280_pressure;Samples;Min_cycle;Max_cycle;Signal;HPM_P1;HPM_P2
2023/04/04 00:00:25;;;;;;;2.27;0.93;;;4.90;95.90;;;;;;5084209;28;20171;-76
2023/04/04 00:02:51;;;;;;;1.23;0.90;;;4.90;96.00;;;;;;5093447;28;20291;-76
2023/04/04 00:05:19;;;;;;;2.23;0.90;;;4.90;96.10;;;;;;5094593;28;20239;-75
2023/04/04 00:07:46;;;;;;;1.40;1.00;;;4.80;96.20;;;;;;5077109;28;20180;-77
2023/04/04 00:10:11;;;;;;;1.70;1.00;;;4.80;96.40;;;;;;5094146;28;20196;-77
2023/04/04 00:12:40;;;;;;;1.87;1.03;;;4.70;96.50;;;;;;5083672;28;20202;-76
2023/04/04 00:15:06;;;;;;;3.00;1.10;;;4.60;96.60;;;;;;5069011;28;20187;-67
2023/04/04 00:17:34;;;;;;;1.57;1.10;;;4.70;96.80;;;;;;5076888;28;20190;-76
2023/04/04 00:20:04;;;;;;;1.60;1.00;;;4.60;97.00;;;;;;5095390;28;20183;-78
2023/04/04 00:22:30;;;;;;;4.03;1.10;;;4.60;97.10;;;;;;5096745;28;20193;-74
2023/04/04 00:24:58;;;;;;;4.03;0.97;;;4.60;97.20;;;;;;5074862;28;20219;-76
2023/04/04 00:27:26;;;;;;;1.77;1.00;;;4.60;97.20;;;;;;5095788;28;20171;-78
2023/04/04 00:29:54;;;;;;;1.37;0.83;;;4.50;97.40;;;;;;5068983;28;20200;-76
2023/04/04 00:32:20;;;;;;;1.83;1.00;;;4.50;97.50;;;;;;5078543;28;20235;-78
2023/04/04 00:34:53;;;;;;;1.77;0.93;;;4.50;97.60;;;;;;5087925;28;20551;-77
2023/04/04 00:37:20;;;;;;;2.47;1.10;;;4.50;97.50;;;;;;5075470;28;20204;-65
2023/04/04 00:39:48;;;;;;;1.50;1.00;;;4.50;97.60;;;;;;5077606;28;20263;-64
2023/04/04 00:42:14;;;;;;;1.37;0.97;;;4.40;97.60;;;;;;5111549;28;20224;-64
2023/04/04 00:44:40;;;;;;;2.50;1.17;;;4.30;97.70;;;;;;5073098;28;20203;-65
2023/04/04 00:47:05;;;;;;;2.70;1.20;;;4.30;97.80;;;;;;5078320;28;20186;-65
2023/04/04 00:49:32;;;;;;;1.20;1.00;;;4.20;98.00;;;;;;5076352;28;20262;-65
2023/04/04 00:52:00;;;;;;;2.27;1.10;;;4.20;98.10;;;;;;5066561;28;20185;-65
2023/04/04 00:54:26;;;;;;;1.07;0.90;;;4.10;98.30;;;;;;5066481;28;20173;-65
2023/04/04 00:56:54;;;;;;;1.10;0.90;;;4.10;98.50;;;;;;5088728;28;20210;-64
2023/04/04 00:59:21;;;;;;;2.57;1.10;;;4.00;98.70;;;;;;5077840;28;20184;-64
2023/04/04 01:01:47;;;;;;;2.03;1.00;;;4.00;98.90;;;;;;5099700;28;20175;-65
2023/04/04 01:04:15;;;;;;;2.30;1.50;;;3.90;99.00;;;;;;5092181;28;20260;-65
2023/04/04 01:06:42;;;;;;;1.63;1.10;;;3.90;99.20;;;;;;5072707;28;20195;-65
2023/04/04 01:09:08;;;;;;;2.83;1.20;;;3.90;99.30;;;;;;5090311;28;20172;-66
2023/04/04 01:11:35;;;;;;;2.73;1.27;;;3.80;99.50;;;;;;5089070;28;20171;-64
2023/04/04 01:14:02;;;;;;;2.00;1.30;;;3.80;99.60;;;;;;5076251;28;20176;-65
2023/04/04 01:16:34;;;;;;;2.37;1.13;;;3.80;99.80;;;;;;5078055;28;20199;-65
2023/04/04 01:19:01;;;;;;;2.40;1.30;;;3.80;99.90;;;;;;5077954;28;20183;-65
2023/04/04 01:21:31;;;;;;;2.07;1.10;;;3.70;99.90;;;;;;5078098;28;20183;-66
2023/04/04 01:24:01;;;;;;;3.57;1.50;;;3.70;99.90;;;;;;5077544;28;20200;-65
2023/04/04 01:26:27;;;;;;;2.60;1.57;;;3.70;99.90;;;;;;5076871;28;20211;-64
2023/04/04 01:28:57;;;;;;;3.00;1.40;;;3.70;99.90;;;;;;5078055;28;20172;-66
2023/04/04 01:31:40;;;;;;;1.37;1.10;;;3.60;99.90;;;;;;5094367;28;20175;-64
2023/04/04 01:34:37;;;;;;;2.00;0.97;;;3.70;99.90;;;;;;5059145;28;20176;-63
2023/04/04 01:37:20;;;;;;;2.37;1.10;;;3.60;99.90;;;;;;5088545;28;20196;-65
2023/04/04 01:39:55;;;;;;;1.63;1.10;;;3.60;99.90;;;;;;5071751;28;20176;-66
2023/04/04 01:42:22;;;;;;;1.37;0.97;;;3.60;99.90;;;;;;5111329;28;20267;-66
2023/04/04 01:44:56;;;;;;;1.93;1.10;;;3.60;99.90;;;;;;5077647;28;20176;-65
2023/04/04 01:47:23;;;;;;;1.53;1.00;;;3.60;99.90;;;;;;5069521;28;20232;-66
2023/04/04 01:49:49;;;;;;;2.10;1.20;;;3.50;99.90;;;;;;5076451;28;20207;-66
2023/04/04 01:52:15;;;;;;;1.80;1.03;;;3.60;99.90;;;;;;5108836;28;20176;-64
2023/04/04 01:54:43;;;;;;;1.57;0.97;;;3.60;99.90;;;;;;5072907;28;20184;-65
2023/04/04 01:57:11;;;;;;;3.30;1.30;;;3.50;99.90;;;;;;5075660;28;20164;-65
2023/04/04 01:59:39;;;;;;;2.17;0.90;;;3.50;99.90;;;;;;5081049;28;20204;-65
2023/04/04 02:02:06;;;;;;;1.40;0.97;;;3.40;99.90;;;;;;5086815;28;20165;-65
2023/04/04 02:04:31;;;;;;;1.53;0.87;;;3.40;99.90;;;;;;5077803;28;20255;-64
2023/04/04 02:06:58;;;;;;;1.73;1.10;;;3.30;99.90;;;;;;5076397;28;20259;-64
2023/04/04 02:09:25;;;;;;;2.00;1.00;;;3.30;99.90;;;;;;5078960;28;20172;-64
2023/04/04 02:11:51;;;;;;;1.30;0.90;;;3.30;99.90;;;;;;5075407;28;20203;-67
2023/04/04 02:14:17;;;;;;;1.83;1.00;;;3.20;99.90;;;;;;5063514;28;20180;-66
2023/04/04 02:16:47;;;;;;;2.50;1.00;;;3.20;99.90;;;;;;5074189;28;20187;-65
2023/04/04 02:19:17;;;;;;;1.23;1.00;;;3.10;99.90;;;;;;5075038;28;20192;-65
2023/04/04 02:21:43;;;;;;;1.50;0.90;;;3.20;99.90;;;;;;5065785;28;20268;-65
2023/04/04 02:24:09;;;;;;;1.57;1.10;;;3.10;99.90;;;;;;5095945;28;20211;-64
2023/04/04 02:26:35;;;;;;;1.37;0.73;;;3.00;99.90;;;;;;5069799;28;20295;-67
2023/04/04 02:29:03;;;;;;;1.90;1.10;;;3.00;99.90;;;;;;5076659;28;20232;-65
2023/04/04 02:31:31;;;;;;;1.10;0.90;;;2.90;99.90;;;;;;5077246;28;20207;-65
2023/04/04 02:33:56;;;;;;;1.80;1.00;;;2.90;99.90;;;;;;5102863;28;20192;-64
2023/04/04 02:36:25;;;;;;;1.60;0.90;;;2.90;99.90;;;;;;5079518;28;20183;-65
2023/04/04 02:38:53;;;;;;;2.00;1.00;;;2.90;99.90;;;;;;5114546;28;20176;-65
2023/04/04 02:41:18;;;;;;;1.10;0.80;;;2.90;99.90;;;;;;5092731;28;20281;-66
2023/04/04 02:43:44;;;;;;;1.10;0.87;;;2.80;99.90;;;;;;5089374;28;20175;-66
2023/04/04 02:46:10;;;;;;;3.23;0.83;;;2.80;99.90;;;;;;5078963;28;20257;-65
2023/04/04 02:48:36;;;;;;;2.73;1.23;;;2.70;99.90;;;;;;5072364;28;20196;-66
2023/04/04 02:51:01;;;;;;;1.70;1.00;;;2.70;99.90;;;;;;5116681;27;20183;-66
2023/04/04 02:53:29;;;;;;;1.87;1.03;;;2.60;99.90;;;;;;5088515;28;20177;-65
2023/04/04 02:55:55;;;;;;;1.50;0.80;;;2.60;99.90;;;;;;5065416;28;20200;-66
2023/04/04 02:58:21;;;;;;;2.23;1.20;;;2.60;99.90;;;;;;5092999;28;20184;-65
2023/04/04 03:00:53;;;;;;;1.30;0.90;;;2.60;99.90;;;;;;5067963;28;20188;-65
2023/04/04 03:03:21;;;;;;;1.63;1.00;;;2.50;99.90;;;;;;5080526;28;20458;-65
2023/04/04 03:05:50;;;;;;;1.53;1.00;;;2.50;99.90;;;;;;5076691;28;20235;-65
2023/04/04 03:08:16;;;;;;;1.30;0.90;;;2.50;99.90;;;;;;5096069;28;20184;-66
2023/04/04 03:10:45;;;;;;;3.60;1.10;;;2.50;99.90;;;;;;5074577;28;20168;-65
2023/04/04 03:13:11;;;;;;;1.80;1.20;;;2.40;99.90;;;;;;5075377;28;20161;-65
2023/04/04 03:15:39;;;;;;;1.40;1.00;;;2.40;99.90;;;;;;5064890;28;20207;-66
2023/04/04 03:18:05;;;;;;;1.30;0.80;;;2.40;99.90;;;;;;5074641;28;20169;-67
2023/04/04 03:20:30;;;;;;;1.93;1.10;;;2.40;99.90;;;;;;5107668;28;20186;-66
2023/04/04 03:22:57;;;;;;;2.20;1.40;;;2.40;99.90;;;;;;5073803;28;20195;-65
2023/04/04 03:25:23;;;;;;;1.60;1.13;;;2.40;99.90;;;;;;5082553;28;20200;-66
2023/04/04 03:27:53;;;;;;;1.80;1.00;;;2.40;99.90;;;;;;5068534;28;20179;-65
2023/04/04 03:30:19;;;;;;;1.50;1.00;;;2.40;99.90;;;;;;5076221;28;20196;-65
2023/04/04 03:32:44;;;;;;;4.00;2.17;;;2.40;99.90;;;;;;5071828;28;20176;-66
2023/04/04 03:35:10;;;;;;;12.47;7.33;;;2.40;99.90;;;;;;5084393;28;20200;-66
2023/04/04 03:37:36;;;;;;;6.00;3.80;;;2.40;99.90;;;;;;5078825;28;20200;-65
2023/04/04 03:40:02;;;;;;;3.57;2.40;;;2.40;99.90;;;;;;5074988;28;20240;-66
2023/04/04 03:42:31;;;;;;;4.13;2.73;;;2.40;99.90;;;;;;5078880;28;20184;-65
2023/04/04 03:44:57;;;;;;;4.03;2.40;;;2.40;99.90;;;;;;5067090;28;20212;-66
2023/04/04 03:47:25;;;;;;;3.97;2.40;;;2.40;99.90;;;;;;5096210;28;20249;-66
2023/04/04 03:49:51;;;;;;;3.43;1.93;;;2.40;99.90;;;;;;5076360;28;20184;-66
2023/04/04 03:52:21;;;;;;;2.87;1.83;;;2.40;99.90;;;;;;5071692;28;20402;-65
2023/04/04 03:54:49;;;;;;;3.20;2.00;;;2.50;99.90;;;;;;5068404;28;20176;-66
2023/04/04 03:57:15;;;;;;;2.80;1.80;;;2.40;99.90;;;;;;5076322;28;20177;-66
2023/04/04 03:59:42;;;;;;;2.93;1.83;;;2.40;99.90;;;;;;5060519;28;20173;-66
2023/04/04 04:02:08;;;;;;;3.57;2.10;;;2.40;99.90;;;;;;5110498;27;20192;-66
2023/04/04 04:04:36;;;;;;;3.93;2.30;;;2.40;99.90;;;;;;5069694;28;20183;-65
2023/04/04 04:07:04;;;;;;;2.80;1.80;;;2.40;99.90;;;;;;5078793;28;20180;-65
2023/04/04 04:09:29;;;;;;;2.73;1.40;;;2.40;99.90;;;;;;5110761;27;20173;-65
2023/04/04 04:11:55;;;;;;;2.97;1.40;;;2.40;99.90;;;;;;5066113;28;20196;-66
2023/04/04 04:14:23;;;;;;;1.80;1.40;;;2.40;99.90;;;;;;5074888;28;20188;-66
2023/04/04 04:16:49;;;;;;;2.50;1.33;;;2.40;99.90;;;;;;5064369;28;20242;-65
2023/04/04 04:19:21;;;;;;;1.73;1.10;;;2.30;99.90;;;;;;5078238;28;20200;-65
2023/04/04 04:21:47;;;;;;;1.80;1.20;;;2.40;99.90;;;;;;5086117;28;20176;-66
2023/04/04 04:24:15;;;;;;;2.87;1.17;;;2.30;99.90;;;;;;5074590;28;20267;-66
2023/04/04 04:26:43;;;;;;;1.70;1.10;;;2.30;99.90;;;;;;5082847;28;20200;-66
2023/04/04 04:29:09;;;;;;;6.87;4.70;;;2.20;99.90;;;;;;5086722;28;20199;-65
2023/04/04 04:31:34;;;;;;;6.30;4.20;;;2.20;99.90;;;;;;5090278;28;20199;-65
2023/04/04 04:34:03;;;;;;;5.40;3.13;;;2.20;99.90;;;;;;5074608;28;20192;-66
2023/04/04 04:36:32;;;;;;;3.60;2.40;;;2.20;99.90;;;;;;5094330;28;20192;-65
2023/04/04 04:39:00;;;;;;;2.40;1.67;;;2.20;99.90;;;;;;5077612;28;20177;-65
2023/04/04 04:41:26;;;;;;;3.10;1.90;;;2.20;99.90;;;;;;5061559;28;20214;-65
2023/04/04 04:43:52;;;;;;;2.63;1.63;;;2.20;99.90;;;;;;5076419;28;20180;-66
2023/04/04 04:46:20;;;;;;;2.90;1.60;;;2.20;99.90;;;;;;5079140;28;20219;-66
2023/04/04 04:48:48;;;;;;;7.37;4.50;;;2.10;99.90;;;;;;5079763;28;20213;-65
2023/04/04 04:51:14;;;;;;;3.77;1.90;;;2.10;99.90;;;;;;5069436;28;20180;-65
2023/04/04 04:53:40;;;;;;;2.80;1.70;;;2.00;99.90;;;;;;5078960;28;20206;-65
2023/04/04 04:56:06;;;;;;;4.37;1.70;;;2.00;99.90;;;;;;5084433;28;20176;-65
2023/04/04 04:58:32;;;;;;;2.30;1.43;;;1.90;99.90;;;;;;5081516;28;20181;-65
2023/04/04 05:01:00;;;;;;;2.67;1.40;;;1.90;99.90;;;;;;5077228;28;20247;-65
2023/04/04 05:03:27;;;;;;;3.40;1.70;;;1.80;99.90;;;;;;5066064;28;20183;-65
2023/04/04 05:05:53;;;;;;;3.20;1.70;;;1.90;99.90;;;;;;5075702;28;20222;-65
2023/04/04 05:08:19;;;;;;;2.00;1.50;;;1.80;99.90;;;;;;5071943;28;20248;-66
2023/04/04 05:10:44;;;;;;;2.77;1.60;;;1.70;99.90;;;;;;5106489;28;20167;-65
2023/04/04 05:13:12;;;;;;;4.03;1.50;;;1.70;99.90;;;;;;5073516;28;20195;-65
2023/04/04 05:15:40;;;;;;;1.87;1.30;;;1.70;99.90;;;;;;5077460;28;20183;-65
2023/04/04 05:18:06;;;;;;;2.40;1.20;;;1.70;99.90;;;;;;5076432;28;20196;-65
2023/04/04 05:20:32;;;;;;;3.70;1.30;;;1.70;99.90;;;;;;5074336;28;20290;-65
2023/04/04 05:22:57;;;;;;;1.67;1.30;;;1.70;99.90;;;;;;5078436;28;20185;-65
2023/04/04 05:25:26;;;;;;;1.90;1.03;;;1.70;99.90;;;;;;5083252;28;20218;-65
2023/04/04 05:27:57;;;;;;;1.60;1.20;;;1.70;99.90;;;;;;5077217;28;20180;-66
2023/04/04 05:30:23;;;;;;;1.80;1.07;;;1.70;99.90;;;;;;5077002;28;20190;-65
2023/04/04 05:32:50;;;;;;;1.37;1.00;;;1.70;99.90;;;;;;5077339;28;20176;-65
2023/04/04 05:35:16;;;;;;;2.13;1.20;;;1.70;99.90;;;;;;5077422;28;20205;-65
2023/04/04 05:37:44;;;;;;;3.33;1.70;;;1.70;99.90;;;;;;5076656;28;20176;-65
2023/04/04 05:40:10;;;;;;;1.37;1.07;;;1.80;99.90;;;;;;5060065;28;20246;-64
2023/04/04 05:42:36;;;;;;;1.63;1.00;;;1.80;99.90;;;;;;5082720;28;20171;-65
2023/04/04 05:45:02;;;;;;;1.93;1.07;;;1.80;99.90;;;;;;5073807;28;20191;-65
2023/04/04 05:47:28;;;;;;;1.87;1.07;;;1.80;99.90;;;;;;5085404;28;20238;-65
2023/04/04 05:49:56;;;;;;;2.13;1.30;;;1.80;99.90;;;;;;5085524;28;20176;-65
2023/04/04 05:52:22;;;;;;;4.03;1.40;;;1.80;99.90;;;;;;5075078;28;20180;-64
2023/04/04 05:54:50;;;;;;;1.60;1.07;;;1.90;99.90;;;;;;5077779;28;20204;-65
2023/04/04 05:57:15;;;;;;;2.10;1.33;;;1.90;99.90;;;;;;5080418;28;20175;-65
2023/04/04 05:59:43;;;;;;;2.30;1.40;;;2.10;99.90;;;;;;5077044;28;20172;-65
2023/04/04 06:02:09;;;;;;;2.40;1.30;;;1.90;99.90;;;;;;5076081;28;20314;-65
2023/04/04 06:04:39;;;;;;;2.40;1.30;;;2.00;99.90;;;;;;5068637;28;20267;-64
2023/04/04 06:07:07;;;;;;;1.67;1.23;;;2.10;99.90;;;;;;5099578;28;20207;-65
2023/04/04 06:09:33;;;;;;;3.10;0.90;;;2.10;99.90;;;;;;5080460;28;20172;-65
2023/04/04 06:12:03;;;;;;;1.47;1.00;;;2.20;99.90;;;;;;5103835;28;20176;-65
2023/04/04 06:14:29;;;;;;;1.87;1.17;;;2.20;99.90;;;;;;5080041;28;20212;-65
2023/04/04 06:17:00;;;;;;;1.90;1.10;;;2.30;99.90;;;;;;5079991;28;20172;-66
2023/04/04 06:19:25;;;;;;;1.33;1.10;;;2.30;99.90;;;;;;5079696;28;20263;-65
2023/04/04 06:21:54;;;;;;;1.60;1.00;;;2.40;99.90;;;;;;5081947;28;20333;-66
2023/04/04 06:24:19;;;;;;;1.30;1.00;;;2.40;99.90;;;;;;5086889;28;20180;-65
2023/04/04 06:26:50;;;;;;;1.83;1.20;;;2.50;99.90;;;;;;5078889;28;20215;-65
2023/04/04 06:29:18;;;;;;;1.60;1.20;;;2.50;99.90;;;;;;5073654;28;20183;-66
2023/04/04 06:31:48;;;;;;;1.83;1.10;;;2.60;99.90;;;;;;5077552;28;20180;-65
2023/04/04 06:34:15;;;;;;;2.13;1.13;;;2.60;99.90;;;;;;5074466;28;20278;-66
2023/04/04 06:36:41;;;;;;;1.97;1.10;;;2.70;99.90;;;;;;5099134;28;20180;-66
2023/04/04 06:39:07;;;;;;;1.30;0.97;;;2.70;99.90;;;;;;5079781;28;20179;-65
2023/04/04 06:41:32;;;;;;;1.50;1.00;;;2.80;99.90;;;;;;5079705;28;20265;-66
2023/04/04 06:43:59;;;;;;;2.50;1.67;;;2.80;99.90;;;;;;5075941;28;20188;-66
2023/04/04 06:46:29;;;;;;;2.40;1.17;;;2.90;99.90;;;;;;5076221;28;20239;-66
2023/04/04 06:48:57;;;;;;;1.27;1.00;;;2.90;99.90;;;;;;5076021;28;20196;-66
2023/04/04 06:51:26;;;;;;;2.23;1.10;;;2.90;99.90;;;;;;5068750;28;20245;-65
2023/04/04 06:53:56;;;;;;;1.87;1.37;;;3.00;99.90;;;;;;5098323;28;20171;-66
2023/04/04 06:56:22;;;;;;;2.00;1.10;;;3.00;99.90;;;;;;5083627;28;20210;-65
2023/04/04 06:58:49;;;;;;;5.07;1.20;;;3.10;99.90;;;;;;5084780;28;20191;-65
2023/04/04 07:01:15;;;;;;;1.57;1.03;;;3.10;99.90;;;;;;5062667;28;20198;-65
2023/04/04 07:03:43;;;;;;;2.30;1.40;;;3.20;99.90;;;;;;5076279;28;20196;-65
2023/04/04 07:06:11;;;;;;;1.70;1.20;;;3.20;99.90;;;;;;5080033;28;20203;-65
2023/04/04 07:08:37;;;;;;;2.40;1.60;;;3.20;99.90;;;;;;5076093;28;20176;-65
2023/04/04 07:11:03;;;;;;;1.67;1.00;;;3.30;99.90;;;;;;5079069;28;20196;-65
2023/04/04 07:13:29;;;;;;;1.90;1.20;;;3.30;99.90;;;;;;5094020;28;20169;-65
2023/04/04 07:15:55;;;;;;;1.60;1.20;;;3.40;99.90;;;;;;5118612;27;20182;-65
2023/04/04 07:18:22;;;;;;;3.27;1.93;;;3.40;99.90;;;;;;5087075;28;20199;-65
2023/04/04 07:20:48;;;;;;;2.63;1.63;;;3.50;99.90;;;;;;5079620;28;20183;-65
2023/04/04 07:23:16;;;;;;;3.27;1.90;;;3.60;99.90;;;;;;5077213;28;20262;-64
2023/04/04 07:25:42;;;;;;;2.40;1.50;;;3.60;99.90;;;;;;5107933;27;20226;-65
2023/04/04 07:28:10;;;;;;;3.17;1.70;;;3.60;99.90;;;;;;5113352;28;20259;-65
2023/04/04 07:30:38;;;;;;;2.30;1.47;;;3.60;99.90;;;;;;5097337;28;20194;-65
2023/04/04 07:33:06;;;;;;;2.50;1.50;;;3.70;99.90;;;;;;5078280;28;20282;-64
2023/04/04 07:35:34;;;;;;;2.83;1.70;;;3.70;99.90;;;;;;5088005;28;20222;-65
2023/04/04 07:37:59;;;;;;;2.50;1.30;;;3.70;99.90;;;;;;5074571;28;20176;-65
2023/04/04 07:40:26;;;;;;;2.30;1.30;;;3.80;99.90;;;;;;5082089;28;20215;-65
2023/04/04 07:42:53;;;;;;;1.73;1.20;;;3.80;99.90;;;;;;5081899;28;20180;-65
2023/04/04 07:45:20;;;;;;;2.80;1.50;;;3.90;99.90;;;;;;5079148;28;20192;-65
2023/04/04 07:47:46;;;;;;;1.97;1.40;;;4.00;99.90;;;;;;5079492;28;20233;-64
2023/04/04 07:50:13;;;;;;;4.10;1.40;;;4.00;99.90;;;;;;5059586;28;20259;-65
2023/04/04 07:52:39;;;;;;;2.20;1.40;;;4.10;99.90;;;;;;5075481;28;20176;-64
2023/04/04 07:55:06;;;;;;;3.53;1.50;;;4.20;99.90;;;;;;5095266;28;20503;-65
2023/04/04 07:57:32;;;;;;;3.43;1.70;;;4.20;99.90;;;;;;5079511;28;20217;-64
2023/04/04 07:59:58;;;;;;;5.17;1.80;;;4.30;99.90;;;;;;5089573;28;20191;-65
2023/04/04 08:02:24;;;;;;;2.90;1.60;;;4.40;99.90;;;;;;5091963;28;20183;-65
2023/04/04 08:04:52;;;;;;;2.93;1.40;;;4.40;99.90;;;;;;5098008;28;20176;-65
2023/04/04 08:07:18;;;;;;;3.30;1.50;;;4.50;99.90;;;;;;5089733;28;20229;-65
2023/04/04 08:09:46;;;;;;;3.50;1.67;;;4.70;99.90;;;;;;5072759;28;20172;-65
2023/04/04 08:12:13;;;;;;;2.47;1.40;;;4.70;99.90;;;;;;5083794;28;20176;-65
2023/04/04 08:14:39;;;;;;;2.20;1.30;;;4.80;99.90;;;;;;5088116;28;20221;-65
2023/04/04 08:17:05;;;;;;;1.97;1.20;;;4.90;99.90;;;;;;5089044;28;20171;-65
2023/04/04 08:19:30;;;;;;;3.27;1.40;;;4.90;99.90;;;;;;5089938;28;20184;-65
2023/04/04 08:21:56;;;;;;;3.83;1.40;;;5.00;99.90;;;;;;5092457;28;20268;-65
2023/04/04 08:24:23;;;;;;;2.90;1.43;;;5.10;99.90;;;;;;5080395;28;20406;-64
2023/04/04 08:26:48;;;;;;;2.13;1.30;;;5.20;99.90;;;;;;5078705;28;20231;-65
2023/04/04 08:29:14;;;;;;;1.87;1.33;;;5.20;99.90;;;;;;5078006;28;20179;-65
2023/04/04 08:31:40;;;;;;;2.30;1.40;;;5.30;99.90;;;;;;5077918;28;20258;-66
2023/04/04 08:34:08;;;;;;;2.73;1.40;;;5.40;99.90;;;;;;5078670;28;20170;-65
2023/04/04 08:36:36;;;;;;;2.03;1.20;;;5.40;99.90;;;;;;5091443;28;20172;-65
2023/04/04 08:39:07;;;;;;;2.63;1.60;;;5.50;99.90;;;;;;5098568;28;20199;-65
2023/04/04 08:41:34;;;;;;;1.77;1.50;;;5.60;99.90;;;;;;5079161;28;20176;-66
2023/04/04 08:44:04;;;;;;;1.97;1.30;;;5.60;99.90;;;;;;5078643;28;20180;-65
2023/04/04 08:46:30;;;;;;;2.30;1.40;;;5.70;99.90;;;;;;5078286;28;20238;-66
2023/04/04 08:48:59;;;;;;;2.10;1.30;;;5.80;99.90;;;;;;5077518;28;20179;-65
2023/04/04 08:51:28;;;;;;;2.27;1.50;;;5.90;99.90;;;;;;5078023;28;20218;-65
2023/04/04 08:53:57;;;;;;;2.50;1.63;;;6.00;99.90;;;;;;5077543;28;20168;-66
2023/04/04 08:56:28;;;;;;;1.90;1.60;;;6.00;99.90;;;;;;5110938;28;20175;-65
2023/04/04 08:58:54;;;;;;;4.87;2.00;;;6.10;99.90;;;;;;5081007;28;20242;-66
2023/04/04 09:01:21;;;;;;;3.10;1.80;;;6.20;99.90;;;;;;5077340;28;20176;-66
2023/04/04 09:03:49;;;;;;;1.97;1.47;;;6.30;99.90;;;;;;5078185;28;20332;-65
2023/04/04 09:06:18;;;;;;;2.40;1.90;;;6.30;99.90;;;;;;5074574;28;20219;-66
2023/04/04 09:08:46;;;;;;;2.10;1.80;;;6.40;99.90;;;;;;5127105;27;20229;-66
2023/04/04 09:11:16;;;;;;;1.87;1.67;;;6.40;99.90;;;;;;5086453;28;20193;-65
2023/04/04 09:13:45;;;;;;;2.93;2.00;;;6.50;99.90;;;;;;5083907;28;20163;-65
2023/04/04 09:16:11;;;;;;;3.07;1.70;;;6.50;99.90;;;;;;5080782;28;20207;-66
2023/04/04 09:18:36;;;;;;;2.20;1.80;;;6.60;99.90;;;;;;5070041;28;20176;-65
2023/04/04 09:21:14;;;;;;;2.13;1.80;;;6.70;99.90;;;;;;5077850;28;20442;-65
2023/04/04 09:23:42;;;;;;;2.17;1.80;;;6.80;99.90;;;;;;5068525;28;20199;-66
2023/04/04 09:26:12;;;;;;;2.57;1.80;;;6.80;99.90;;;;;;5111550;28;20278;-65
2023/04/04 09:28:37;;;;;;;2.20;1.77;;;7.00;99.90;;;;;;5078326;28;20167;-80
2023/04/04 09:31:08;;;;;;;2.60;2.03;;;7.00;99.90;;;;;;5091940;28;20174;-78
2023/04/04 09:33:34;;;;;;;2.07;1.87;;;7.10;99.90;;;;;;5085035;28;20168;-78
2023/04/04 09:36:14;;;;;;;2.10;1.80;;;7.20;99.90;;;;;;5076530;28;20171;-78
2023/04/04 09:38:44;;;;;;;2.97;2.00;;;7.30;99.90;;;;;;5073541;28;20194;-78
2023/04/04 09:41:13;;;;;;;3.03;2.10;;;7.30;99.90;;;;;;5086421;28;20232;-76
2023/04/04 09:43:39;;;;;;;3.60;2.13;;;7.30;99.90;;;;;;5081692;28;20294;-79
2023/04/04 09:46:06;;;;;;;3.10;2.00;;;7.40;99.90;;;;;;5096686;28;20281;-79
2023/04/04 09:48:35;;;;;;;1.97;1.70;;;7.40;99.90;;;;;;5095082;27;20210;-65
2023/04/04 09:51:04;;;;;;;2.90;1.80;;;7.40;99.90;;;;;;5106092;28;20184;-75
2023/04/04 09:53:34;;;;;;;3.10;2.10;;;7.50;99.90;;;;;;5098438;28;20178;-78
2023/04/04 09:56:01;;;;;;;2.47;1.90;;;7.50;99.90;;;;;;5082076;28;20243;-78
2023/04/04 09:58:35;;;;;;;1.87;1.67;;;7.60;99.90;;;;;;5088459;28;20239;-78
2023/04/04 10:01:05;;;;;;;2.83;1.90;;;8.10;99.90;;;;;;5071502;28;20260;-78
2023/04/04 10:03:31;;;;;;;3.40;2.00;;;8.70;99.90;;;;;;5081036;28;20200;-79
2023/04/04 10:06:05;;;;;;;2.07;1.80;;;9.30;99.90;;;;;;5080782;28;20206;-78
2023/04/04 10:08:34;;;;;;;2.77;1.97;;;9.90;99.20;;;;;;5102160;28;20175;-73
2023/04/04 10:11:06;;;;;;;2.80;1.93;;;10.50;99.90;;;;;;5092210;28;20236;-76
2023/04/04 10:13:39;;;;;;;3.57;1.90;;;11.10;98.10;;;;;;5089785;28;20180;-78
2023/04/04 10:16:07;;;;;;;3.30;2.30;;;11.40;97.70;;;;;;5081304;28;20169;-78
2023/04/04 10:18:36;;;;;;;2.13;1.83;;;11.60;95.40;;;;;;5079593;28;20200;-79
2023/04/04 10:21:05;;;;;;;2.55;1.77;;;11.70;97.20;;;;;;5081206;28;20267;-77
2023/04/04 10:23:33;;;;;;;2.50;1.55;;;11.90;96.20;;;;;;5082130;28;20210;-76
2023/04/04 10:25:59;;;;;;;2.85;1.90;;;12.20;96.40;;;;;;5073028;28;20242;-75
2023/04/04 10:28:26;;;;;;;1.95;1.55;;;12.50;96.20;;;;;;5073834;28;20176;-77
2023/04/04 10:31:13;;;;;;;3.35;1.63;;;12.80;95.70;;;;;;5103677;28;20179;-75
2023/04/04 10:34:16;;;;;;;2.60;1.75;;;13.00;93.10;;;;;;5062748;28;20178;-77
2023/04/04 10:37:04;;;;;;;2.03;1.65;;;13.20;91.30;;;;;;5080317;28;20168;-79
2023/04/04 10:39:35;;;;;;;4.63;1.70;;;13.40;94.00;;;;;;5089204;28;20287;-77
2023/04/04 10:42:05;;;;;;;2.35;1.77;;;13.50;93.40;;;;;;5080019;28;20175;-77
2023/04/04 10:44:32;;;;;;;2.03;1.75;;;13.70;94.00;;;;;;5067940;28;20179;-74
2023/04/04 10:47:20;;;;;;;2.50;1.90;;;13.90;94.60;;;;;;5079974;28;20200;-77
2023/04/04 10:49:47;;;;;;;2.00;1.70;;;14.10;92.30;;;;;;5075030;28;20196;-78
2023/04/04 10:52:15;;;;;;;2.63;1.80;;;14.30;95.70;;;;;;5093976;28;20173;-79
2023/04/04 10:54:45;;;;;;;2.80;1.85;;;14.50;95.30;;;;;;5065322;28;20201;-77
2023/04/04 10:57:12;;;;;;;2.17;1.98;;;14.60;93.80;;;;;;5062026;28;20188;-79
2023/04/04 11:00:00;;;;;;;2.72;1.95;;;14.80;93.70;;;;;;5081251;28;20204;-75
2023/04/04 11:02:50;;;;;;;2.10;1.45;;;14.70;84.00;;;;;;5090883;28;20233;-78
2023/04/04 11:05:25;;;;;;;1.98;1.65;;;14.70;87.90;;;;;;5068724;28;20211;-78
2023/04/04 11:07:56;;;;;;;2.97;1.70;;;14.70;90.30;;;;;;5071722;28;20201;-76
2023/04/04 11:10:26;;;;;;;2.58;1.67;;;14.70;89.90;;;;;;5071954;28;20173;-78
2023/04/04 11:12:57;;;;;;;2.53;2.17;;;14.70;92.40;;;;;;5087308;28;20180;-76
2023/04/04 11:15:26;;;;;;;4.05;1.80;;;14.70;90.10;;;;;;5071540;28;20176;-77
2023/04/04 11:17:57;;;;;;;2.05;1.65;;;14.70;90.20;;;;;;5104612;28;20187;-76
2023/04/04 11:20:37;;;;;;;2.35;1.83;;;14.60;87.90;;;;;;5079430;28;20195;-74
2023/04/04 11:23:25;;;;;;;2.00;1.80;;;14.70;89.50;;;;;;5079529;28;20202;-77
2023/04/04 11:25:59;;;;;;;2.33;1.77;;;14.70;89.30;;;;;;5078898;28;20207;-78
2023/04/04 11:28:47;;;;;;;2.13;1.80;;;14.60;90.90;;;;;;5076395;28;20191;-80
2023/04/04 11:31:21;;;;;;;2.33;1.98;;;14.40;91.10;;;;;;5071147;28;20191;-75
2023/04/04 11:34:17;;;;;;;1.98;1.70;;;14.30;87.30;;;;;;5075077;28;20233;-77
2023/04/04 11:36:45;;;;;;;3.38;2.00;;;14.20;86.70;;;;;;5077568;28;20184;-77
2023/04/04 11:39:14;;;;;;;2.55;1.88;;;14.20;92.30;;;;;;5078608;28;20168;-77
2023/04/04 11:41:57;;;;;;;2.13;1.90;;;14.30;86.80;;;;;;5078744;28;20195;-77
2023/04/04 11:44:28;;;;;;;2.22;1.60;;;14.30;86.40;;;;;;5073431;28;20266;-78
2023/04/04 11:47:14;;;;;;;2.00;1.80;;;14.30;91.60;;;;;;5088285;28;20195;-75
2023/04/04 11:49:44;;;;;;;2.88;2.10;;;14.40;90.10;;;;;;5075912;28;20228;-74
2023/04/04 11:52:12;;;;;;;3.40;1.90;;;14.40;90.90;;;;;;5113022;28;20179;-79
2023/04/04 11:54:45;;;;;;;2.72;1.80;;;14.50;90.10;;;;;;5103513;28;20184;-78
2023/04/04 11:57:14;;;;;;;2.35;1.90;;;14.50;84.50;;;;;;5078559;28;20164;-79
2023/04/04 11:59:53;;;;;;;2.58;1.80;;;14.50;84.70;;;;;;5075836;28;20168;-76
2023/04/04 12:02:28;;;;;;;2.67;1.77;;;14.60;81.90;;;;;;5078812;28;20203;-78
2023/04/04 12:04:58;;;;;;;2.92;1.95;;;14.60;84.20;;;;;;5086927;28;20181;-77
2023/04/04 12:07:27;;;;;;;1.88;1.70;;;14.60;87.40;;;;;;5083952;28;20182;-77
2023/04/04 12:09:53;;;;;;;3.15;2.00;;;14.70;83.30;;;;;;5076945;28;20223;-80
2023/04/04 12:12:21;;;;;;;2.40;1.98;;;14.60;83.70;;;;;;5059889;28;20242;-78
2023/04/04 12:14:47;;;;;;;2.92;2.03;;;14.60;81.20;;;;;;5109108;28;20175;-78
2023/04/04 12:17:16;;;;;;;2.78;1.80;;;14.60;80.00;;;;;;5078185;28;20186;-79
2023/04/04 12:19:43;;;;;;;1.70;1.52;;;14.60;82.90;;;;;;5077918;28;20202;-76
2023/04/04 12:22:09;;;;;;;2.28;1.70;;;14.70;78.90;;;;;;5060920;28;20196;-78
2023/04/04 12:24:40;;;;;;;2.00;1.60;;;14.70;79.40;;;;;;5077332;28;20418;-80
2023/04/04 12:27:06;;;;;;;3.22;1.70;;;14.70;76.80;;;;;;5078668;28;20252;-76
2023/04/04 12:29:36;;;;;;;2.13;1.50;;;14.80;80.80;;;;;;5079906;28;20195;-78
2023/04/04 12:32:03;;;;;;;3.55;1.50;;;14.80;81.60;;;;;;5079108;28;20164;-80
2023/04/04 12:34:32;;;;;;;2.05;1.75;;;14.90;83.10;;;;;;5078118;28;20196;-79
2023/04/04 12:37:02;;;;;;;1.90;1.70;;;15.00;79.20;;;;;;5077421;28;20203;-77
2023/04/04 12:39:29;;;;;;;2.65;1.58;;;15.10;80.40;;;;;;5074468;28;20180;-79
2023/04/04 12:41:58;;;;;;;2.25;1.60;;;15.10;79.20;;;;;;5082992;28;20180;-79
2023/04/04 12:44:35;;;;;;;2.22;1.80;;;15.20;82.60;;;;;;5059695;28;20201;-76
2023/04/04 12:47:07;;;;;;;2.33;1.63;;;15.30;74.30;;;;;;5074449;28;20463;-80
2023/04/04 12:49:47;;;;;;;1.60;1.42;;;15.20;77.80;;;;;;5103468;28;20192;-79
2023/04/04 12:52:21;;;;;;;1.88;1.77;;;15.30;79.00;;;;;;5082032;28;20182;-79
2023/04/04 12:54:52;;;;;;;2.33;1.70;;;15.30;78.30;;;;;;5092129;28;20180;-77
2023/04/04 12:57:21;;;;;;;2.38;1.60;;;15.50;81.80;;;;;;5081894;28;20191;-78
2023/04/04 12:59:47;;;;;;;2.47;1.67;;;15.60;81.50;;;;;;5092908;28;20183;-79
2023/04/04 13:02:20;;;;;;;1.63;1.52;;;15.70;83.00;;;;;;5060694;28;20270;-78